KDCU/DCU METAR and TAF weather

Enter ICAO airport designator
Station Type Date Time Source
KDCU METAR 2019/08/24 08:53 UTC NOAA

KDCU 240853Z AUTO 00000KT 8SM CLR 22/21 A3003 RMK AO2 SLP160 T02170211 55002


Station Type Date Time Source
KDCU Decoded METAR 2019/08/24 08:53 UTC NOAA

Station name not available
Aug 24, 2019 - 04:53 AM EDT / 2019.08.24 0853 UTC
Wind: Calm:0
Visibility: 8 mile(s):0
Sky conditions: clear
Temperature: 71.1 F (21.7 C)
Dew Point: 70.0 F (21.1 C)
Relative Humidity: 96%
Pressure (altimeter): 30.03 in. Hg (1016 hPa)
Pressure tendency: 0.01 inches (0.2 hPa) lower than three hours ago
ob: KDCU 240853Z AUTO 00000KT 8SM CLR 22/21 A3003 RMK AO2 SLP160 T02170211 55002
cycle: 9

Station Type Date Time Source
KDCU TAF UTC NOAA

Error!

Example: see airport list